Sunday, November 19, 2017, 9:12 AM EST
Back to Local

KIWI, Wiscasset Municipal Airport

Location: Wiscasset, ME, United States Lat: 43.967
Local Time: 9:12 AM EST (14:12 GMT) Lon: -69.717
Time Zone: US/Eastern Elev: 68 ft

Show me the last for .
Show Decoded

2017-11-19 08:53 METAR KIWI 191353Z AUTO 20012G23KT 4SM RA BR OVC006 14/13 A2916 RMK AO2 SLP874
                 P0008 T01390133 =
2017-11-19 08:05 METAR KIWI 191305Z AUTO 20008G14KT 3SM RA BR OVC005 13/13 A2919 RMK AO2 P0002
                 T01330128 =
2017-11-19 07:53 METAR KIWI 191253Z AUTO 19009G18KT 2SM RA BR OVC006 13/13 A2920 RMK AO2 CIG
                 004V009 SLP887 P0010 T01330128 =
2017-11-19 07:50 METAR KIWI 191250Z AUTO 19012G18KT 2SM RA BR OVC006 13/13 A2920 RMK AO2 CIG
                 004V009 P0009 =
2017-11-19 06:53 METAR KIWI 191153Z AUTO 17008G15KT 7SM -RA BKN007 OVC010 13/12 A2921 RMK AO2
                 SLP891 P0006 60035 70043 T01330122 10133 20094 56045 =
2017-11-19 05:53 METAR KIWI 191053Z AUTO 19007KT 5SM RA BR OVC008 12/12 A2925 RMK AO2 CIG 005V012
                 SLP906 P0010 T01220117 =
2017-11-19 05:25 METAR KIWI 191025Z AUTO 19008KT 4SM -RA BR OVC005 12/12 A2927 RMK AO2 PRESFR
                 P0006 T01220117 =
2017-11-19 04:53 METAR KIWI 190953Z AUTO VRB05KT 5SM -RA BR BKN004 OVC008 12/11 A2929 RMK AO2
                 SLP919 P0006 T01170111 =
2017-11-19 03:53 METAR KIWI 190853Z AUTO 25003KT 8SM -RA BKN004 OVC011 10/10 A2934 RMK AO2 CIG
                 003V008 SLP937 P0004 60013 T01000100 58045 =
2017-11-19 03:41 METAR KIWI 190841Z AUTO 18003KT 8SM -RA BKN008 OVC015 10/09 A2935 RMK AO2 CIG
                 005V010 P0004 T01000094 =
2017-11-19 03:34 METAR KIWI 190834Z AUTO VRB03KT 7SM -RA BKN010 OVC017 10/09 A2936 RMK AO2 CIG
                 006V014 P0004 T01000094 =
2017-11-19 03:17 METAR KIWI 190817Z AUTO 20005KT 6SM -RA BR SCT008 OVC019 10/09 A2937 RMK AO2
                 P0002 T01000094 =
2017-11-19 02:53 METAR KIWI 190753Z AUTO 20007KT 5SM RA BR BKN008 BKN024 OVC034 11/10 A2940 RMK
                 AO2 CIG 005V011 SLP955 P0005 T01060100 =
2017-11-19 02:35 METAR KIWI 190735Z AUTO 20006KT 7SM -RA BKN009 BKN027 OVC050 11/11 A2941 RMK AO2
                 CIG 006V014 P0002 T01110106 =
2017-11-19 02:26 METAR KIWI 190726Z AUTO 19006KT 8SM -RA FEW006 BKN010 OVC049 11/11 A2941 RMK AO2
                 CIG 007V016 P0001 T01110106 =
2017-11-19 01:53 METAR KIWI 190653Z AUTO 19007KT 4SM -RA BR OVC006 11/10 A2944 RMK AO2 SLP968
                 P0004 T01060100 =
2017-11-19 01:45 METAR KIWI 190645Z AUTO VRB04KT 3SM -RA BR OVC004 10/09 A2944 RMK AO2 P0003
                 T01000094 =
2017-11-19 01:13 METAR KIWI 190613Z AUTO VRB03KT 4SM -RA BR SCT006 BKN009 OVC027 09/09 A2946 RMK
                 AO2 P0001 T00940094 =
2017-11-19 00:58 METAR KIWI 190558Z AUTO 18004KT 4SM -RA BR SCT006 BKN018 OVC035 10/09 A2947 RMK
                 AO2 P0000 T01000089 =
2017-11-19 00:53 METAR KIWI 190553Z AUTO VRB05KT 4SM -RA BR BKN007 BKN010 OVC025 10/09 A2948 RMK
                 AO2 SLP982 P0003 60008 T01000089 10106 20056 56042 =
2017-11-19 00:25 METAR KIWI 190525Z AUTO 18005KT 6SM -RA BR BKN008 BKN024 OVC037 10/09 A2950 RMK
                 AO2 P0001 T01000094 =
2017-11-19 00:17 METAR KIWI 190517Z AUTO 18008KT 5SM -RA BR SCT008 BKN024 OVC037 10/09 A2950 RMK
                 AO2 P0001 T01000094 =
2017-11-18 23:53 METAR KIWI 190453Z AUTO 19005KT 5SM -RA BR BKN006 OVC015 11/09 A2951 RMK AO2
                 RAE15B32 CIG 005V011 SLP994 P0001 T01060094 401061056 =
2017-11-18 23:33 METAR KIWI 190433Z AUTO 20007KT 7SM -RA BKN009 OVC014 11/09 A2953 RMK AO2
                 RAE15B32 CIG 006V011 P0000 T01060094 =
2017-11-18 23:26 METAR KIWI 190426Z AUTO 19009KT 8SM FEW007 BKN010 OVC016 11/09 A2954 RMK AO2
                 RAE15 P0000 T01060094 =
2017-11-18 23:10 METAR KIWI 190410Z AUTO 16007KT 110V200 10SM -RA BKN008 BKN019 OVC026 10/09
                 A2954 RMK AO2 CIG 007V013 P0000 T01000094 =
2017-11-18 22:53 METAR KIWI 190353Z AUTO VRB05KT 10SM -RA FEW010 BKN023 OVC043 10/09 A2956 RMK
                 AO2 SLP009 P0002 T01000089 =
2017-11-18 22:35 METAR KIWI 190335Z AUTO VRB05KT 10SM -RA SCT010 BKN021 OVC049 09/08 A2957 RMK
                 AO2 P0001 T00940083 =
2017-11-18 21:53 METAR KIWI 190253Z AUTO VRB04KT 9SM -RA BKN011 OVC022 08/07 A2960 RMK AO2 RAB25
                 SLP024 P0002 60002 T00780067 58016 =
2017-11-18 21:48 METAR KIWI 190248Z AUTO 25004KT 9SM -RA FEW008 BKN013 OVC022 08/07 A2961 RMK AO2
                 RAB25 P0001 =
2017-11-18 21:07 METAR KIWI 190207Z AUTO 00000KT 6SM BR BKN011 OVC018 06/04 A2963 RMK AO2 P0001
                 T00560044 =
2017-11-18 20:53 METAR KIWI 190153Z AUTO 00000KT 8SM FEW013 BKN018 OVC038 06/04 A2965 RMK AO2
                 RAE15 SLP039 P0000 T00610044 =
2017-11-18 20:50 METAR KIWI 190150Z AUTO 00000KT 9SM SCT015 BKN024 OVC038 06/04 A2965 RMK AO2
                 RAE15 P0000 =
2017-11-18 19:53 METAR KIWI 190053Z AUTO 00000KT 10SM -RA FEW046 OVC055 06/03 A2969 RMK AO2 RAB20
                 SLP054 P0000 T00610028 =
2017-11-18 18:53 METAR KIWI 182353Z AUTO 18005KT 10SM OVC070 07/M01 A2972 RMK AO2 SLP067
                 T00671006 10067 20033 56020 =
2017-11-18 17:53 METAR KIWI 182253Z AUTO 08003KT 10SM OVC100 04/M01 A2974 RMK AO2 SLP071
                 T00441011 =
2017-11-18 16:53 METAR KIWI 182153Z AUTO 00000KT 10SM OVC120 05/M02 A2976 RMK AO2 SLP078
                 T00501022 =
2017-11-18 15:53 METAR KIWI 182053Z AUTO 00000KT 10SM CLR 04/M03 A2978 RMK AO2 SLP087 T00391033
                 56020 =
2017-11-18 14:53 METAR KIWI 181953Z AUTO VRB03KT 10SM CLR 05/M07 A2980 RMK AO2 SLP091 T00501067 =
2017-11-18 13:53 METAR KIWI 181853Z AUTO 21006KT 10SM CLR 06/M08 A2982 RMK AO2 SLP099 T00561078 =
2017-11-18 12:53 METAR KIWI 181753Z AUTO VRB03KT 10SM CLR 06/M12 A2984 RMK AO2 SLP106 T00561117
                 10056 21056 56033 =
2017-11-18 11:53 METAR KIWI 181653Z AUTO 22004KT 10SM CLR 06/M12 A2987 RMK AO2 SLP114 T00561117 =
2017-11-18 10:53 METAR KIWI 181553Z AUTO 00000KT 10SM CLR 04/M11 A2990 RMK AO2 SLP125 T00441111 =
2017-11-18 09:53 METAR KIWI 181453Z AUTO 00000KT 10SM CLR 03/M10 A2994 RMK AO2 SLP140 T00331100
                 58004 =

Support USWX by starting your Amazon purchase here.